sensor_id;sensor_type;location;lat;lon;timestamp;P1;durP1;ratioP1;P2;durP2;ratioP2
42670;SDS011;28283;55.426;37.756;2022-12-13T00:02:33;2.90;;;2.70;;
42670;SDS011;28283;55.426;37.756;2022-12-13T00:07:34;3.78;;;3.38;;
42670;SDS011;28283;55.426;37.756;2022-12-13T00:12:35;2.78;;;2.50;;
42670;SDS011;28283;55.426;37.756;2022-12-13T00:17:36;3.25;;;2.95;;
42670;SDS011;28283;55.426;37.756;2022-12-13T00:22:37;2.75;;;2.55;;
42670;SDS011;28283;55.426;37.756;2022-12-13T00:27:37;3.15;;;2.70;;
42670;SDS011;28283;55.426;37.756;2022-12-13T00:32:38;2.90;;;2.70;;
42670;SDS011;28283;55.426;37.756;2022-12-13T00:37:39;3.60;;;3.10;;
42670;SDS011;28283;55.426;37.756;2022-12-13T00:42:39;3.20;;;2.47;;
42670;SDS011;28283;55.426;37.756;2022-12-13T00:47:40;2.70;;;2.50;;
42670;SDS011;28283;55.426;37.756;2022-12-13T00:52:40;4.53;;;3.88;;
42670;SDS011;28283;55.426;37.756;2022-12-13T00:57:41;3.58;;;3.08;;
42670;SDS011;28283;55.426;37.756;2022-12-13T01:02:42;3.47;;;3.17;;
42670;SDS011;28283;55.426;37.756;2022-12-13T01:07:43;4.03;;;3.40;;
42670;SDS011;28283;55.426;37.756;2022-12-13T01:12:45;4.65;;;4.05;;
42670;SDS011;28283;55.426;37.756;2022-12-13T01:17:46;4.25;;;3.83;;
42670;SDS011;28283;55.426;37.756;2022-12-13T01:22:48;4.80;;;4.40;;
42670;SDS011;28283;55.426;37.756;2022-12-13T01:27:49;4.63;;;4.22;;
42670;SDS011;28283;55.426;37.756;2022-12-13T01:32:49;4.30;;;3.90;;
42670;SDS011;28283;55.426;37.756;2022-12-13T01:37:50;4.07;;;3.78;;
42670;SDS011;28283;55.426;37.756;2022-12-13T01:42:51;3.90;;;3.50;;
42670;SDS011;28283;55.426;37.756;2022-12-13T01:47:53;5.40;;;3.83;;
42670;SDS011;28283;55.426;37.756;2022-12-13T01:53:01;4.30;;;3.90;;
42670;SDS011;28283;55.426;37.756;2022-12-13T01:58:06;4.65;;;4.10;;
42670;SDS011;28283;55.426;37.756;2022-12-13T02:03:07;3.75;;;3.53;;
42670;SDS011;28283;55.426;37.756;2022-12-13T02:08:10;3.83;;;3.53;;
42670;SDS011;28283;55.426;37.756;2022-12-13T02:13:12;3.85;;;3.50;;
42670;SDS011;28283;55.426;37.756;2022-12-13T02:18:25;3.88;;;3.58;;
42670;SDS011;28283;55.426;37.756;2022-12-13T02:24:06;4.43;;;4.05;;
42670;SDS011;28283;55.426;37.756;2022-12-13T02:34:19;3.05;;;2.72;;
42670;SDS011;28283;55.426;37.756;2022-12-13T02:39:27;4.90;;;4.20;;
42670;SDS011;28283;55.426;37.756;2022-12-13T02:44:36;4.50;;;4.10;;
42670;SDS011;28283;55.426;37.756;2022-12-13T02:49:45;4.25;;;3.85;;
42670;SDS011;28283;55.426;37.756;2022-12-13T02:54:48;4.70;;;4.22;;
42670;SDS011;28283;55.426;37.756;2022-12-13T02:59:49;5.03;;;4.63;;
42670;SDS011;28283;55.426;37.756;2022-12-13T03:05:14;4.38;;;3.97;;
42670;SDS011;28283;55.426;37.756;2022-12-13T03:10:34;5.20;;;4.70;;
42670;SDS011;28283;55.426;37.756;2022-12-13T03:20:57;5.13;;;4.63;;
42670;SDS011;28283;55.426;37.756;2022-12-13T03:26:01;6.35;;;5.25;;
42670;SDS011;28283;55.426;37.756;2022-12-13T03:31:12;5.22;;;4.55;;
42670;SDS011;28283;55.426;37.756;2022-12-13T03:36:13;6.78;;;5.30;;
42670;SDS011;28283;55.426;37.756;2022-12-13T03:41:16;5.25;;;4.75;;
42670;SDS011;28283;55.426;37.756;2022-12-13T03:46:19;6.70;;;4.63;;
42670;SDS011;28283;55.426;37.756;2022-12-13T03:51:20;6.25;;;4.70;;
42670;SDS011;28283;55.426;37.756;2022-12-13T03:56:20;5.10;;;4.63;;
42670;SDS011;28283;55.426;37.756;2022-12-13T04:01:21;4.00;;;3.70;;
42670;SDS011;28283;55.426;37.756;2022-12-13T04:06:22;3.22;;;2.92;;
42670;SDS011;28283;55.426;37.756;2022-12-13T04:11:23;3.42;;;3.13;;
42670;SDS011;28283;55.426;37.756;2022-12-13T04:16:42;4.03;;;3.63;;
42670;SDS011;28283;55.426;37.756;2022-12-13T04:21:43;3.75;;;3.42;;
42670;SDS011;28283;55.426;37.756;2022-12-13T04:26:43;3.67;;;3.37;;
42670;SDS011;28283;55.426;37.756;2022-12-13T04:31:44;5.33;;;3.97;;
42670;SDS011;28283;55.426;37.756;2022-12-13T04:36:44;4.63;;;3.90;;
42670;SDS011;28283;55.426;37.756;2022-12-13T04:41:45;4.82;;;4.15;;
42670;SDS011;28283;55.426;37.756;2022-12-13T04:46:46;4.63;;;4.22;;
42670;SDS011;28283;55.426;37.756;2022-12-13T04:51:46;4.60;;;3.95;;
42670;SDS011;28283;55.426;37.756;2022-12-13T04:56:47;4.47;;;4.07;;
42670;SDS011;28283;55.426;37.756;2022-12-13T05:01:48;5.00;;;4.47;;
42670;SDS011;28283;55.426;37.756;2022-12-13T05:06:48;4.63;;;4.22;;
42670;SDS011;28283;55.426;37.756;2022-12-13T05:11:49;4.03;;;3.67;;
42670;SDS011;28283;55.426;37.756;2022-12-13T05:16:53;4.68;;;4.28;;
42670;SDS011;28283;55.426;37.756;2022-12-13T05:21:53;5.50;;;4.45;;
42670;SDS011;28283;55.426;37.756;2022-12-13T05:26:54;5.97;;;4.83;;
42670;SDS011;28283;55.426;37.756;2022-12-13T05:31:55;4.57;;;4.17;;
42670;SDS011;28283;55.426;37.756;2022-12-13T05:36:55;5.03;;;4.43;;
42670;SDS011;28283;55.426;37.756;2022-12-13T05:41:56;5.43;;;4.93;;
42670;SDS011;28283;55.426;37.756;2022-12-13T05:46:58;4.80;;;4.40;;
42670;SDS011;28283;55.426;37.756;2022-12-13T05:51:59;5.37;;;4.87;;
42670;SDS011;28283;55.426;37.756;2022-12-13T05:57:00;7.78;;;4.80;;
42670;SDS011;28283;55.426;37.756;2022-12-13T06:02:00;5.23;;;4.60;;
42670;SDS011;28283;55.426;37.756;2022-12-13T06:07:01;4.68;;;4.28;;
42670;SDS011;28283;55.426;37.756;2022-12-13T06:12:02;4.57;;;4.13;;
42670;SDS011;28283;55.426;37.756;2022-12-13T06:17:03;6.03;;;5.28;;
42670;SDS011;28283;55.426;37.756;2022-12-13T06:22:04;5.18;;;4.65;;
42670;SDS011;28283;55.426;37.756;2022-12-13T06:27:04;6.70;;;5.57;;
42670;SDS011;28283;55.426;37.756;2022-12-13T06:32:05;4.70;;;4.13;;
42670;SDS011;28283;55.426;37.756;2022-12-13T06:37:06;6.20;;;5.57;;
42670;SDS011;28283;55.426;37.756;2022-12-13T06:42:13;4.57;;;4.03;;
42670;SDS011;28283;55.426;37.756;2022-12-13T06:47:15;6.38;;;5.78;;
42670;SDS011;28283;55.426;37.756;2022-12-13T06:52:16;7.22;;;6.53;;
42670;SDS011;28283;55.426;37.756;2022-12-13T06:57:17;6.90;;;6.17;;
42670;SDS011;28283;55.426;37.756;2022-12-13T07:02:17;5.90;;;5.40;;
42670;SDS011;28283;55.426;37.756;2022-12-13T07:07:18;8.50;;;6.07;;
42670;SDS011;28283;55.426;37.756;2022-12-13T07:12:18;12.87;;;7.00;;
42670;SDS011;28283;55.426;37.756;2022-12-13T07:17:20;7.32;;;6.63;;
42670;SDS011;28283;55.426;37.756;2022-12-13T07:22:20;7.70;;;6.55;;
42670;SDS011;28283;55.426;37.756;2022-12-13T07:27:21;6.60;;;6.00;;
42670;SDS011;28283;55.426;37.756;2022-12-13T07:32:22;8.57;;;6.30;;
42670;SDS011;28283;55.426;37.756;2022-12-13T07:37:22;7.47;;;6.07;;
42670;SDS011;28283;55.426;37.756;2022-12-13T07:42:23;6.63;;;5.93;;
42670;SDS011;28283;55.426;37.756;2022-12-13T07:47:27;6.63;;;5.83;;
42670;SDS011;28283;55.426;37.756;2022-12-13T07:52:29;9.80;;;6.28;;
42670;SDS011;28283;55.426;37.756;2022-12-13T07:57:30;6.43;;;5.47;;
42670;SDS011;28283;55.426;37.756;2022-12-13T08:02:30;6.80;;;5.25;;
42670;SDS011;28283;55.426;37.756;2022-12-13T08:07:34;7.97;;;5.80;;
42670;SDS011;28283;55.426;37.756;2022-12-13T08:12:36;5.95;;;5.38;;
42670;SDS011;28283;55.426;37.756;2022-12-13T08:17:37;5.82;;;4.90;;
42670;SDS011;28283;55.426;37.756;2022-12-13T08:22:38;4.90;;;4.45;;
42670;SDS011;28283;55.426;37.756;2022-12-13T08:27:39;5.40;;;4.70;;
42670;SDS011;28283;55.426;37.756;2022-12-13T08:32:39;5.13;;;4.63;;
42670;SDS011;28283;55.426;37.756;2022-12-13T08:37:40;5.90;;;4.83;;
42670;SDS011;28283;55.426;37.756;2022-12-13T08:42:41;5.37;;;4.87;;
42670;SDS011;28283;55.426;37.756;2022-12-13T08:47:41;5.45;;;4.97;;
42670;SDS011;28283;55.426;37.756;2022-12-13T08:52:42;7.13;;;4.70;;
42670;SDS011;28283;55.426;37.756;2022-12-13T08:57:44;4.47;;;4.07;;
42670;SDS011;28283;55.426;37.756;2022-12-13T09:02:45;5.50;;;4.70;;
42670;SDS011;28283;55.426;37.756;2022-12-13T09:07:46;7.60;;;4.78;;
42670;SDS011;28283;55.426;37.756;2022-12-13T09:12:46;4.72;;;3.80;;
42670;SDS011;28283;55.426;37.756;2022-12-13T09:17:47;4.60;;;4.03;;
42670;SDS011;28283;55.426;37.756;2022-12-13T09:22:48;3.97;;;3.58;;
42670;SDS011;28283;55.426;37.756;2022-12-13T09:27:49;3.88;;;3.50;;
42670;SDS011;28283;55.426;37.756;2022-12-13T09:32:49;0.87;;;0.60;;
42670;SDS011;28283;55.426;37.756;2022-12-13T09:37:50;0.60;;;0.60;;
42670;SDS011;28283;55.426;37.756;2022-12-13T09:42:52;1.13;;;1.10;;
42670;SDS011;28283;55.426;37.756;2022-12-13T09:47:56;1.40;;;1.15;;
42670;SDS011;28283;55.426;37.756;2022-12-13T09:52:59;1.00;;;0.90;;
42670;SDS011;28283;55.426;37.756;2022-12-13T09:58:05;1.40;;;0.88;;
42670;SDS011;28283;55.426;37.756;2022-12-13T10:03:11;1.42;;;0.80;;
42670;SDS011;28283;55.426;37.756;2022-12-13T10:08:15;1.08;;;0.95;;
42670;SDS011;28283;55.426;37.756;2022-12-13T10:18:33;1.05;;;1.05;;
42670;SDS011;28283;55.426;37.756;2022-12-13T10:23:38;2.55;;;1.55;;
42670;SDS011;28283;55.426;37.756;2022-12-13T10:28:39;2.40;;;1.70;;
42670;SDS011;28283;55.426;37.756;2022-12-13T10:33:41;2.22;;;2.08;;
42670;SDS011;28283;55.426;37.756;2022-12-13T10:38:56;2.75;;;2.17;;
42670;SDS011;28283;55.426;37.756;2022-12-13T10:44:07;1.48;;;1.38;;
42670;SDS011;28283;55.426;37.756;2022-12-13T10:49:16;0.90;;;0.70;;
42670;SDS011;28283;55.426;37.756;2022-12-13T10:54:31;1.10;;;0.93;;
42670;SDS011;28283;55.426;37.756;2022-12-13T10:59:34;2.25;;;1.30;;
42670;SDS011;28283;55.426;37.756;2022-12-13T11:04:37;1.10;;;1.05;;
42670;SDS011;28283;55.426;37.756;2022-12-13T11:09:38;1.55;;;1.02;;
42670;SDS011;28283;55.426;37.756;2022-12-13T11:14:39;1.43;;;1.10;;
42670;SDS011;28283;55.426;37.756;2022-12-13T11:20:06;1.55;;;1.27;;
42670;SDS011;28283;55.426;37.756;2022-12-13T11:25:22;2.30;;;1.25;;
42670;SDS011;28283;55.426;37.756;2022-12-13T11:30:36;1.42;;;1.30;;
42670;SDS011;28283;55.426;37.756;2022-12-13T11:41:09;2.92;;;2.42;;
42670;SDS011;28283;55.426;37.756;2022-12-13T11:46:19;2.95;;;2.50;;
42670;SDS011;28283;55.426;37.756;2022-12-13T11:51:30;3.63;;;2.88;;
42670;SDS011;28283;55.426;37.756;2022-12-13T11:56:40;4.63;;;2.50;;
42670;SDS011;28283;55.426;37.756;2022-12-13T12:01:50;11.70;;;5.72;;
42670;SDS011;28283;55.426;37.756;2022-12-13T12:06:58;5.45;;;4.03;;
42670;SDS011;28283;55.426;37.756;2022-12-13T12:17:15;4.90;;;4.03;;
42670;SDS011;28283;55.426;37.756;2022-12-13T12:22:24;5.45;;;3.58;;
42670;SDS011;28283;55.426;37.756;2022-12-13T12:28:26;5.43;;;3.97;;
42670;SDS011;28283;55.426;37.756;2022-12-13T12:33:21;2.60;;;2.38;;
42670;SDS011;28283;55.426;37.756;2022-12-13T12:38:28;7.63;;;2.50;;
42670;SDS011;28283;55.426;37.756;2022-12-13T12:43:40;6.32;;;4.38;;
42670;SDS011;28283;55.426;37.756;2022-12-13T12:59:37;8.27;;;5.57;;
42670;SDS011;28283;55.426;37.756;2022-12-13T13:04:45;6.40;;;4.70;;
42670;SDS011;28283;55.426;37.756;2022-12-13T13:10:00;8.30;;;5.53;;
42670;SDS011;28283;55.426;37.756;2022-12-13T13:20:30;10.75;;;5.82;;
42670;SDS011;28283;55.426;37.756;2022-12-13T13:25:33;9.30;;;7.20;;
42670;SDS011;28283;55.426;37.756;2022-12-13T13:30:34;9.02;;;6.78;;
42670;SDS011;28283;55.426;37.756;2022-12-13T13:40:42;11.77;;;8.02;;
42670;SDS011;28283;55.426;37.756;2022-12-13T14:01:59;10.73;;;7.32;;
42670;SDS011;28283;55.426;37.756;2022-12-13T14:18:09;9.80;;;7.57;;
42670;SDS011;28283;55.426;37.756;2022-12-13T14:29:03;13.27;;;8.40;;
42670;SDS011;28283;55.426;37.756;2022-12-13T14:34:22;12.70;;;8.55;;
42670;SDS011;28283;55.426;37.756;2022-12-13T14:39:28;13.68;;;8.57;;
42670;SDS011;28283;55.426;37.756;2022-12-13T14:44:31;11.23;;;7.93;;
42670;SDS011;28283;55.426;37.756;2022-12-13T14:49:38;13.55;;;8.55;;
42670;SDS011;28283;55.426;37.756;2022-12-13T14:59:49;11.93;;;8.57;;
42670;SDS011;28283;55.426;37.756;2022-12-13T15:04:51;13.00;;;8.55;;
42670;SDS011;28283;55.426;37.756;2022-12-13T15:09:57;12.98;;;8.00;;
42670;SDS011;28283;55.426;37.756;2022-12-13T15:15:02;10.60;;;7.55;;
42670;SDS011;28283;55.426;37.756;2022-12-13T15:25:24;13.15;;;9.43;;
42670;SDS011;28283;55.426;37.756;2022-12-13T15:30:27;13.77;;;8.75;;
42670;SDS011;28283;55.426;37.756;2022-12-13T15:35:30;14.35;;;9.13;;
42670;SDS011;28283;55.426;37.756;2022-12-13T15:40:35;16.05;;;10.00;;
42670;SDS011;28283;55.426;37.756;2022-12-13T15:45:35;12.85;;;9.00;;
42670;SDS011;28283;55.426;37.756;2022-12-13T15:50:37;6.53;;;5.40;;
42670;SDS011;28283;55.426;37.756;2022-12-13T15:55:38;8.75;;;6.00;;
42670;SDS011;28283;55.426;37.756;2022-12-13T16:00:47;13.75;;;8.43;;
42670;SDS011;28283;55.426;37.756;2022-12-13T16:05:50;14.63;;;9.18;;
42670;SDS011;28283;55.426;37.756;2022-12-13T16:10:52;13.77;;;8.02;;
42670;SDS011;28283;55.426;37.756;2022-12-13T16:16:18;19.95;;;11.20;;
42670;SDS011;28283;55.426;37.756;2022-12-13T16:21:28;18.52;;;10.73;;
42670;SDS011;28283;55.426;37.756;2022-12-13T16:26:29;10.07;;;5.65;;
42670;SDS011;28283;55.426;37.756;2022-12-13T16:31:30;9.43;;;5.53;;
42670;SDS011;28283;55.426;37.756;2022-12-13T16:36:34;14.20;;;8.40;;
42670;SDS011;28283;55.426;37.756;2022-12-13T16:41:39;14.15;;;9.30;;
42670;SDS011;28283;55.426;37.756;2022-12-13T16:46:46;7.07;;;4.88;;
42670;SDS011;28283;55.426;37.756;2022-12-13T16:51:49;9.23;;;5.40;;
42670;SDS011;28283;55.426;37.756;2022-12-13T16:56:50;20.15;;;12.88;;
42670;SDS011;28283;55.426;37.756;2022-12-13T17:01:52;22.63;;;12.82;;
42670;SDS011;28283;55.426;37.756;2022-12-13T17:06:53;21.30;;;14.25;;
42670;SDS011;28283;55.426;37.756;2022-12-13T17:11:54;29.05;;;17.85;;
42670;SDS011;28283;55.426;37.756;2022-12-13T17:16:57;19.83;;;14.13;;
42670;SDS011;28283;55.426;37.756;2022-12-13T17:21:58;20.70;;;13.77;;
42670;SDS011;28283;55.426;37.756;2022-12-13T17:26:59;20.08;;;13.52;;
42670;SDS011;28283;55.426;37.756;2022-12-13T17:32:00;20.98;;;14.27;;
42670;SDS011;28283;55.426;37.756;2022-12-13T17:37:01;18.17;;;12.90;;
42670;SDS011;28283;55.426;37.756;2022-12-13T17:42:02;19.38;;;13.23;;
42670;SDS011;28283;55.426;37.756;2022-12-13T17:47:03;19.98;;;13.82;;
42670;SDS011;28283;55.426;37.756;2022-12-13T17:52:04;17.45;;;12.52;;
42670;SDS011;28283;55.426;37.756;2022-12-13T17:57:05;17.17;;;13.32;;
42670;SDS011;28283;55.426;37.756;2022-12-13T18:02:06;20.70;;;13.13;;
42670;SDS011;28283;55.426;37.756;2022-12-13T18:07:08;24.02;;;14.50;;
42670;SDS011;28283;55.426;37.756;2022-12-13T18:12:09;18.80;;;13.77;;
42670;SDS011;28283;55.426;37.756;2022-12-13T18:17:10;21.13;;;14.18;;
42670;SDS011;28283;55.426;37.756;2022-12-13T18:22:11;16.27;;;11.07;;
42670;SDS011;28283;55.426;37.756;2022-12-13T18:27:11;6.25;;;4.53;;
42670;SDS011;28283;55.426;37.756;2022-12-13T18:32:12;3.63;;;2.17;;
42670;SDS011;28283;55.426;37.756;2022-12-13T18:37:13;4.18;;;2.35;;
42670;SDS011;28283;55.426;37.756;2022-12-13T18:42:16;2.25;;;2.05;;
42670;SDS011;28283;55.426;37.756;2022-12-13T18:47:17;2.85;;;1.98;;
42670;SDS011;28283;55.426;37.756;2022-12-13T18:52:17;2.33;;;2.00;;
42670;SDS011;28283;55.426;37.756;2022-12-13T18:57:18;2.53;;;1.63;;
42670;SDS011;28283;55.426;37.756;2022-12-13T19:02:19;2.75;;;2.10;;
42670;SDS011;28283;55.426;37.756;2022-12-13T19:07:22;2.42;;;2.22;;
42670;SDS011;28283;55.426;37.756;2022-12-13T19:12:23;2.13;;;2.03;;
42670;SDS011;28283;55.426;37.756;2022-12-13T19:17:24;2.05;;;1.85;;
42670;SDS011;28283;55.426;37.756;2022-12-13T19:22:25;3.67;;;2.08;;
42670;SDS011;28283;55.426;37.756;2022-12-13T19:27:31;2.72;;;2.28;;
42670;SDS011;28283;55.426;37.756;2022-12-13T19:32:32;3.38;;;2.67;;
42670;SDS011;28283;55.426;37.756;2022-12-13T19:37:33;3.72;;;2.85;;
42670;SDS011;28283;55.426;37.756;2022-12-13T19:42:35;3.28;;;2.38;;
42670;SDS011;28283;55.426;37.756;2022-12-13T19:47:36;3.33;;;2.90;;
42670;SDS011;28283;55.426;37.756;2022-12-13T19:52:36;3.63;;;2.70;;
42670;SDS011;28283;55.426;37.756;2022-12-13T19:57:37;3.95;;;3.35;;
42670;SDS011;28283;55.426;37.756;2022-12-13T20:02:38;4.70;;;3.42;;
42670;SDS011;28283;55.426;37.756;2022-12-13T20:07:38;4.28;;;3.33;;
42670;SDS011;28283;55.426;37.756;2022-12-13T20:12:39;4.43;;;4.07;;
42670;SDS011;28283;55.426;37.756;2022-12-13T20:17:40;4.93;;;3.78;;
42670;SDS011;28283;55.426;37.756;2022-12-13T20:22:41;4.57;;;4.03;;
42670;SDS011;28283;55.426;37.756;2022-12-13T20:27:41;4.60;;;3.58;;
42670;SDS011;28283;55.426;37.756;2022-12-13T20:32:43;7.32;;;4.35;;
42670;SDS011;28283;55.426;37.756;2022-12-13T20:37:44;4.55;;;4.07;;
42670;SDS011;28283;55.426;37.756;2022-12-13T20:42:47;5.78;;;4.13;;
42670;SDS011;28283;55.426;37.756;2022-12-13T20:47:48;5.85;;;4.03;;
42670;SDS011;28283;55.426;37.756;2022-12-13T20:52:50;6.57;;;4.53;;
42670;SDS011;28283;55.426;37.756;2022-12-13T20:57:51;5.68;;;4.72;;
42670;SDS011;28283;55.426;37.756;2022-12-13T21:02:51;6.78;;;4.28;;
42670;SDS011;28283;55.426;37.756;2022-12-13T21:07:52;6.82;;;4.97;;
42670;SDS011;28283;55.426;37.756;2022-12-13T21:13:11;6.72;;;4.80;;
42670;SDS011;28283;55.426;37.756;2022-12-13T21:18:12;7.93;;;5.18;;
42670;SDS011;28283;55.426;37.756;2022-12-13T21:28:13;5.28;;;4.63;;
42670;SDS011;28283;55.426;37.756;2022-12-13T21:38:14;7.28;;;5.10;;
42670;SDS011;28283;55.426;37.756;2022-12-13T21:49:33;7.15;;;4.60;;
42670;SDS011;28283;55.426;37.756;2022-12-13T21:59:35;5.45;;;4.25;;
42670;SDS011;28283;55.426;37.756;2022-12-13T22:09:37;8.53;;;5.83;;
42670;SDS011;28283;55.426;37.756;2022-12-13T22:19:38;9.32;;;5.82;;
42670;SDS011;28283;55.426;37.756;2022-12-13T22:29:40;9.50;;;5.00;;
42670;SDS011;28283;55.426;37.756;2022-12-13T22:39:41;7.85;;;5.32;;
42670;SDS011;28283;55.426;37.756;2022-12-13T22:49:42;7.00;;;5.13;;
42670;SDS011;28283;55.426;37.756;2022-12-13T22:59:43;10.30;;;5.33;;
42670;SDS011;28283;55.426;37.756;2022-12-13T23:09:44;7.33;;;5.47;;
42670;SDS011;28283;55.426;37.756;2022-12-13T23:14:45;11.50;;;5.60;;
42670;SDS011;28283;55.426;37.756;2022-12-13T23:24:45;9.60;;;5.22;;
42670;SDS011;28283;55.426;37.756;2022-12-13T23:34:46;7.10;;;4.87;;
42670;SDS011;28283;55.426;37.756;2022-12-13T23:44:47;11.23;;;5.95;;
42670;SDS011;28283;55.426;37.756;2022-12-13T23:54:48;9.10;;;5.05;;
